createdAt,value
2022-10-16T00:01:46.279Z,18749.03
2022-10-16T00:04:15.200Z,18747.00
2022-10-16T00:06:43.290Z,18728.72
2022-10-16T00:09:12.954Z,18688.06
2022-10-16T00:11:42.253Z,18675.88
2022-10-16T00:14:13.620Z,18704.31
2022-10-16T00:16:41.915Z,18688.06
2022-10-16T00:19:11.130Z,18679.94
2022-10-16T00:21:39.450Z,18700.25
2022-10-16T00:24:10.780Z,18704.31
2022-10-16T00:26:41.556Z,18675.88
2022-10-16T00:29:10.230Z,18690.09
2022-10-16T00:31:38.488Z,18661.66
2022-10-16T00:34:06.862Z,18686.03
2022-10-16T00:36:34.809Z,18712.47
2022-10-16T00:39:04.645Z,18708.41
2022-10-16T00:41:34.027Z,18738.88
2022-10-16T00:44:05.708Z,18751.06
2022-10-16T00:46:40.576Z,18761.22
2022-10-16T00:49:12.891Z,18716.53
2022-10-16T00:51:44.129Z,18736.84
2022-10-16T00:54:18.940Z,18704.31
2022-10-16T00:56:48.873Z,18728.72
2022-10-16T00:59:25.597Z,18732.78
2022-10-16T01:01:54.160Z,18767.31
2022-10-16T01:04:23.315Z,18740.91
2022-10-16T01:07:03.105Z,18722.63
2022-10-16T01:09:46.174Z,18714.50
2022-10-16T01:12:23.624Z,18696.19
2022-10-16T01:15:00.752Z,18706.38
2022-10-16T01:17:38.312Z,18724.66
2022-10-16T01:20:16.804Z,18716.53
2022-10-16T01:23:09.629Z,18673.84
2022-10-16T01:25:59.233Z,18694.16
2022-10-16T01:28:38.719Z,18677.91
2022-10-16T01:31:07.403Z,18706.38
2022-10-16T01:33:44.636Z,18661.66
2022-10-16T01:36:18.506Z,18686.03
2022-10-16T01:38:54.020Z,18623.06
2022-10-16T01:41:28.709Z,18647.44
2022-10-16T01:44:05.403Z,18647.44
2022-10-16T01:46:36.194Z,18619.00
2022-10-16T01:49:06.089Z,18627.13
2022-10-16T01:51:36.943Z,18604.78
2022-10-16T01:54:10.049Z,18600.72
2022-10-16T01:56:39.815Z,18590.56
2022-10-16T01:59:15.859Z,18629.16
2022-10-16T02:01:50.623Z,18596.66
2022-10-16T02:04:28.594Z,18578.38
2022-10-16T02:06:57.569Z,18598.69
2022-10-16T02:09:25.696Z,18513.34
2022-10-16T02:11:58.924Z,18519.44
2022-10-16T02:14:29.113Z,18515.38
2022-10-16T02:16:57.257Z,18562.09
2022-10-16T02:19:25.442Z,18509.28
2022-10-16T02:22:00.097Z,18527.56
2022-10-16T02:24:36.137Z,18535.69
2022-10-16T02:27:12.091Z,18553.97
2022-10-16T02:29:49.494Z,18486.94
2022-10-16T02:32:23.211Z,18513.34
2022-10-16T02:34:53.422Z,18497.09
2022-10-16T02:37:22.056Z,18480.84
2022-10-16T02:39:50.162Z,18503.19
2022-10-16T02:42:20.599Z,18515.38
2022-10-16T02:44:49.931Z,18480.84
2022-10-16T02:47:18.046Z,18482.88
2022-10-16T02:49:45.996Z,18488.97
2022-10-16T02:52:13.926Z,18462.56
2022-10-16T02:54:41.908Z,18493.03
2022-10-16T02:57:10.143Z,18493.03
2022-10-16T02:59:38.230Z,18480.84
2022-10-16T03:02:08.005Z,18499.13
2022-10-16T03:04:36.056Z,18460.53
2022-10-16T03:07:05.011Z,18519.44
2022-10-16T03:09:32.999Z,18495.06
2022-10-16T03:12:00.969Z,18482.88
2022-10-16T03:17:01.941Z,18440.22
2022-10-16T03:19:31.278Z,18452.41
2022-10-16T03:21:59.333Z,18430.06
2022-10-16T03:24:27.362Z,18436.16
2022-10-16T03:26:55.323Z,18407.69
2022-10-16T03:29:23.289Z,18425.97
2022-10-16T03:31:51.263Z,18428.03
2022-10-16T03:34:19.203Z,18436.16
2022-10-16T03:36:48.625Z,18375.19
2022-10-16T03:39:16.630Z,18411.75
2022-10-16T03:41:44.630Z,18411.75
2022-10-16T03:44:12.611Z,18403.63
2022-10-16T03:46:40.636Z,18415.81
2022-10-16T03:49:09.804Z,18385.34
2022-10-16T03:51:38.353Z,18389.41
2022-10-16T03:54:07.786Z,18425.97
2022-10-16T03:56:35.760Z,18409.72
2022-10-16T03:59:03.747Z,18409.72
2022-10-16T04:01:31.830Z,18411.75
2022-10-16T04:03:59.825Z,18415.81
2022-10-16T04:06:27.814Z,18423.94
2022-10-16T04:08:55.819Z,18419.88
2022-10-16T04:11:25.340Z,18405.66
2022-10-16T04:13:53.408Z,18407.69
2022-10-16T04:16:21.376Z,18387.38
2022-10-16T04:18:49.366Z,18379.25
2022-10-16T04:21:17.395Z,18387.38
2022-10-16T04:23:45.408Z,18399.56
2022-10-16T04:26:13.401Z,18407.69
2022-10-16T04:28:42.835Z,18358.94
2022-10-16T04:31:11.011Z,18342.69
2022-10-16T04:33:39.067Z,18395.50
2022-10-16T04:36:07.595Z,18383.31
2022-10-16T04:38:35.961Z,18430.06
2022-10-16T04:41:03.938Z,18365.03
2022-10-16T04:43:32.077Z,18375.19
2022-10-16T04:46:02.699Z,18342.69
2022-10-16T04:48:30.701Z,18411.75
2022-10-16T04:50:58.709Z,18397.53
2022-10-16T04:53:26.716Z,18363.00
2022-10-16T04:55:54.795Z,18356.91
2022-10-16T04:58:22.774Z,18369.09
2022-10-16T05:00:50.787Z,18363.00
2022-10-16T05:03:20.308Z,18354.88
2022-10-16T05:05:49.130Z,18371.13
2022-10-16T05:08:18.678Z,18350.81
2022-10-16T05:10:47.347Z,18395.50
2022-10-16T05:13:15.406Z,18348.78
2022-10-16T05:15:43.442Z,18395.50
2022-10-16T05:18:11.560Z,18348.78
2022-10-16T05:20:40.876Z,18334.56
2022-10-16T05:23:11.082Z,18369.09
2022-10-16T05:25:39.317Z,18375.19
2022-10-16T05:28:07.354Z,18377.22
2022-10-16T05:30:35.398Z,18312.22
2022-10-16T05:33:03.359Z,18320.34
2022-10-16T05:35:31.370Z,18340.66
2022-10-16T05:38:00.714Z,18318.31
2022-10-16T05:40:29.146Z,18324.41
2022-10-16T05:42:57.912Z,18379.25
2022-10-16T05:45:26.044Z,18367.06
2022-10-16T05:47:54.159Z,18344.72
2022-10-16T05:50:22.137Z,18326.44
2022-10-16T05:52:50.177Z,18350.81
2022-10-16T05:55:19.604Z,18363.00
2022-10-16T05:57:47.612Z,18350.81
2022-10-16T06:00:15.962Z,18387.38
2022-10-16T06:02:43.983Z,18369.09
2022-10-16T06:05:11.975Z,18381.28
2022-10-16T06:07:39.994Z,18391.44
2022-10-16T06:10:09.945Z,18413.78
2022-10-16T06:12:39.446Z,18452.41
2022-10-16T06:15:08.163Z,18454.44
2022-10-16T06:17:36.151Z,18448.34
2022-10-16T06:20:04.213Z,18476.78
2022-10-16T06:22:32.221Z,18460.53
2022-10-16T06:25:00.184Z,18525.53
2022-10-16T06:27:28.468Z,18501.16
2022-10-16T06:29:58.553Z,18545.84
2022-10-16T06:32:26.518Z,18515.38
2022-10-16T06:34:54.487Z,18549.91
2022-10-16T06:37:23.028Z,18541.78
2022-10-16T06:39:51.060Z,18547.88
2022-10-16T06:42:19.069Z,18614.94
2022-10-16T06:44:47.055Z,18604.78
2022-10-16T06:47:16.409Z,18606.81
2022-10-16T06:49:44.388Z,18608.84
2022-10-16T06:52:12.377Z,18631.19
2022-10-16T06:54:42.549Z,18627.13
2022-10-16T06:57:10.703Z,18612.91
2022-10-16T06:59:38.667Z,18627.13
2022-10-16T07:02:07.948Z,18688.06
2022-10-16T07:04:38.474Z,18649.47
2022-10-16T07:07:08.696Z,18671.81
2022-10-16T07:09:37.763Z,18677.91
2022-10-16T07:12:06.533Z,18647.44
2022-10-16T07:14:34.508Z,18645.41
2022-10-16T07:17:02.578Z,18692.13
2022-10-16T07:19:33.416Z,18751.06
2022-10-16T07:22:04.045Z,18698.22
2022-10-16T07:24:32.027Z,18771.38
2022-10-16T07:26:59.975Z,18773.41
2022-10-16T07:29:28.095Z,18779.50
2022-10-16T07:31:56.114Z,18840.47
2022-10-16T07:34:24.187Z,18858.75
2022-10-16T07:36:52.958Z,18846.56
2022-10-16T07:39:22.454Z,18854.69
2022-10-16T07:41:50.390Z,18826.25
2022-10-16T07:44:18.674Z,18822.19
2022-10-16T07:46:46.667Z,18852.66
2022-10-16T07:49:14.746Z,18877.03
2022-10-16T07:51:42.693Z,18881.09
2022-10-16T07:54:11.053Z,18946.13
2022-10-16T07:56:43.706Z,18952.22
2022-10-16T07:59:12.913Z,19082.25
2022-10-16T08:01:40.958Z,19037.56
2022-10-16T08:04:09.016Z,19192.00
2022-10-16T08:06:39.421Z,19157.44
2022-10-16T08:09:08.397Z,19220.44
2022-10-16T08:11:36.780Z,19273.28
2022-10-16T08:14:06.522Z,19439.91
2022-10-16T08:16:34.511Z,19590.28
2022-10-16T08:19:02.499Z,19761.00
2022-10-16T08:21:30.477Z,19895.13
2022-10-16T08:23:58.800Z,20134.97
2022-10-16T08:26:28.800Z,20224.41
2022-10-16T08:28:57.823Z,20234.56
2022-10-16T08:31:28.193Z,20074.00
2022-10-16T08:33:56.210Z,20051.63
2022-10-16T08:36:24.221Z,20021.16
2022-10-16T08:38:55.172Z,19919.53
2022-10-16T08:42:10.585Z,20006.91
2022-10-16T08:45:15.408Z,19994.72
2022-10-16T08:47:56.713Z,20128.88
2022-10-16T08:50:28.898Z,20206.09
2022-10-16T08:52:57.937Z,20122.78
2022-10-16T08:55:35.799Z,20015.03
2022-10-16T08:58:04.167Z,20006.91
2022-10-16T09:00:32.983Z,20008.94
2022-10-16T09:03:19.136Z,20098.38
2022-10-16T09:06:20.416Z,20155.28
2022-10-16T09:09:09.024Z,20193.91
2022-10-16T09:11:53.880Z,20380.91
2022-10-16T09:14:46.132Z,20756.97
2022-10-16T09:17:39.883Z,20742.75
2022-10-16T09:20:28.726Z,20746.81
2022-10-16T09:23:15.595Z,20588.25
2022-10-16T09:25:48.652Z,20574.00
2022-10-16T09:28:18.178Z,20545.56
2022-10-16T09:30:49.320Z,20551.66
2022-10-16T09:33:20.999Z,20533.34
2022-10-16T09:35:53.668Z,20492.72
2022-10-16T09:38:28.970Z,20468.31
2022-10-16T09:41:03.135Z,20500.84
2022-10-16T09:43:41.398Z,20539.47
2022-10-16T09:46:24.787Z,20655.31
2022-10-16T09:48:57.958Z,20761.03
2022-10-16T09:51:30.698Z,20852.50
2022-10-16T09:54:01.715Z,20803.72
2022-10-16T09:56:33.395Z,20795.59
2022-10-16T09:59:05.157Z,20929.75
2022-10-16T10:01:39.681Z,20911.47
2022-10-16T10:04:09.612Z,20897.25
2022-10-16T10:06:45.340Z,20842.34
2022-10-16T10:09:24.258Z,20803.72
2022-10-16T10:11:56.187Z,20809.81
2022-10-16T10:14:39.207Z,20777.28
2022-10-16T10:17:18.068Z,20887.06
2022-10-16T10:19:51.412Z,20897.25
2022-10-16T10:22:31.353Z,20954.16
2022-10-16T10:25:20.919Z,20948.06
2022-10-16T10:28:17.592Z,20970.41
2022-10-16T10:30:55.815Z,20960.25
2022-10-16T10:33:36.554Z,20950.09
2022-10-16T10:36:22.401Z,20864.72
2022-10-16T10:38:57.604Z,20785.44
2022-10-16T10:42:10.183Z,20722.41
2022-10-16T10:45:17.168Z,20724.44
2022-10-16T10:48:08.255Z,20679.72
2022-10-16T10:50:45.377Z,20685.81
2022-10-16T10:53:44.488Z,20602.47
2022-10-16T10:56:43.329Z,20614.66
2022-10-16T10:59:47.699Z,20685.81
2022-10-16T11:02:28.803Z,20720.38
2022-10-16T11:05:29.799Z,20756.97
2022-10-16T11:08:02.627Z,20742.75
2022-10-16T11:10:44.042Z,20801.69
2022-10-16T11:13:30.245Z,20687.84
2022-10-16T11:16:04.634Z,20736.63
2022-10-16T11:18:47.481Z,20740.69
2022-10-16T11:21:20.171Z,20840.31
2022-10-16T11:23:57.675Z,20752.91
2022-10-16T11:26:33.346Z,20878.94
2022-10-16T11:29:12.902Z,20838.28
2022-10-16T11:31:49.719Z,20923.66
2022-10-16T11:34:28.089Z,20907.41
2022-10-16T11:37:04.272Z,20899.28
2022-10-16T11:39:33.488Z,20899.28
2022-10-16T11:42:10.377Z,20846.41
2022-10-16T11:44:56.802Z,20858.59
2022-10-16T11:50:33.557Z,20878.94
2022-10-16T11:53:13.068Z,20862.69
2022-10-16T11:55:46.159Z,20838.28
2022-10-16T11:58:27.489Z,20846.41
2022-10-16T12:01:12.603Z,20824.06
2022-10-16T12:03:51.385Z,20828.13
2022-10-16T12:06:33.362Z,20797.63
2022-10-16T12:09:03.203Z,20789.50
2022-10-16T12:11:39.101Z,20781.38
2022-10-16T12:14:42.890Z,20732.56
2022-10-16T12:17:37.710Z,20624.84
2022-10-16T12:20:27.707Z,20616.69
2022-10-16T12:22:58.928Z,20517.09
2022-10-16T12:25:31.943Z,20425.63
2022-10-16T12:28:03.722Z,20364.66
2022-10-16T12:30:37.050Z,20315.88
2022-10-16T12:33:08.819Z,20324.00
2022-10-16T12:35:46.636Z,20230.50
2022-10-16T12:38:21.853Z,20128.88
2022-10-16T12:41:01.172Z,20110.56
2022-10-16T12:43:39.898Z,20086.19
2022-10-16T12:46:26.428Z,20141.06
2022-10-16T12:49:08.604Z,20254.88
2022-10-16T12:51:39.195Z,20208.13
2022-10-16T12:54:17.340Z,20354.47
2022-10-16T12:57:04.732Z,20334.16
2022-10-16T12:59:46.941Z,20411.41
2022-10-16T13:02:44.407Z,20338.22
2022-10-16T13:05:31.511Z,20393.09
2022-10-16T13:08:20.228Z,20403.25
2022-10-16T13:11:07.864Z,20431.72
2022-10-16T13:14:01.965Z,20482.53
2022-10-16T13:16:47.742Z,20525.22
2022-10-16T13:19:31.493Z,20513.03
2022-10-16T13:22:19.087Z,20521.16
2022-10-16T13:25:04.004Z,20545.56
2022-10-16T13:27:49.377Z,20606.53
2022-10-16T13:30:26.830Z,20630.94
2022-10-16T13:33:04.586Z,20645.16
2022-10-16T13:35:35.495Z,20630.94
2022-10-16T13:38:16.478Z,20594.34
2022-10-16T13:40:53.396Z,20616.69
2022-10-16T13:43:26.332Z,20641.09
2022-10-16T13:46:02.725Z,20620.78
2022-10-16T13:48:31.744Z,20635.00
2022-10-16T13:51:14.168Z,20557.75
2022-10-16T13:53:44.998Z,20549.63
2022-10-16T13:56:16.362Z,20405.31
2022-10-16T13:58:45.672Z,20334.16
2022-10-16T14:01:22.257Z,20393.09
2022-10-16T14:03:52.384Z,20488.63
2022-10-16T14:06:23.938Z,20474.41
2022-10-16T14:09:07.062Z,20492.72
2022-10-16T14:11:38.822Z,20506.94
2022-10-16T14:14:07.176Z,20515.06
2022-10-16T14:16:35.481Z,20456.13
2022-10-16T14:19:07.766Z,20403.25
2022-10-16T14:21:36.523Z,20393.09
2022-10-16T14:24:15.588Z,20356.50
2022-10-16T14:26:50.719Z,20344.31
2022-10-16T14:29:22.005Z,20319.94
2022-10-16T14:31:58.345Z,20273.19
2022-10-16T14:34:29.960Z,20265.03
2022-10-16T14:37:00.446Z,20291.47
2022-10-16T14:39:30.200Z,20336.19
2022-10-16T14:42:00.463Z,20332.13
2022-10-16T14:44:34.289Z,20307.72
2022-10-16T14:47:14.208Z,20317.91
2022-10-16T14:49:43.885Z,20263.00
2022-10-16T14:52:13.930Z,20285.38
2022-10-16T14:54:43.414Z,20281.31
2022-10-16T14:57:21.035Z,20258.94
2022-10-16T14:59:52.057Z,20173.59
2022-10-16T15:02:29.228Z,20100.41
2022-10-16T15:04:58.149Z,20049.59
2022-10-16T15:07:27.099Z,20004.88
2022-10-16T15:09:57.976Z,19923.59
2022-10-16T15:12:25.979Z,19915.47
2022-10-16T15:14:53.864Z,19860.59
2022-10-16T15:17:22.275Z,19803.69
2022-10-16T15:19:50.240Z,19789.44
2022-10-16T15:22:18.161Z,19793.50
2022-10-16T15:24:46.343Z,19712.22
2022-10-16T15:27:15.679Z,19724.41
2022-10-16T15:29:43.585Z,19639.06
2022-10-16T15:32:12.730Z,19649.22
2022-10-16T15:34:40.618Z,19622.81
2022-10-16T15:37:08.580Z,19651.25
2022-10-16T15:39:41.257Z,19614.66
2022-10-16T15:42:09.436Z,19645.16
2022-10-16T15:44:38.766Z,19653.28
2022-10-16T15:47:06.725Z,19606.53
2022-10-16T15:49:34.694Z,19647.19
2022-10-16T15:52:02.650Z,19606.53
2022-10-16T15:54:30.579Z,19622.81
2022-10-16T15:56:58.510Z,19626.88
2022-10-16T15:59:26.462Z,19620.78
2022-10-16T16:01:55.861Z,19594.34
2022-10-16T16:04:44.053Z,19608.56
2022-10-16T16:07:12.528Z,19533.38
2022-10-16T16:09:40.639Z,19525.25
2022-10-16T16:12:08.624Z,19515.09
2022-10-16T16:14:36.535Z,19484.59
2022-10-16T16:17:05.868Z,19456.16
2022-10-16T16:19:34.444Z,19409.41
2022-10-16T16:22:02.481Z,19391.13
2022-10-16T16:24:30.491Z,19342.34
2022-10-16T16:26:58.638Z,19350.50
2022-10-16T16:29:26.627Z,19342.34
2022-10-16T16:31:58.111Z,19317.97
2022-10-16T16:34:28.247Z,19285.47
2022-10-16T16:36:56.487Z,19244.81
2022-10-16T16:39:25.139Z,19257.00
2022-10-16T16:41:53.073Z,19281.41
2022-10-16T16:44:21.023Z,19248.88
2022-10-16T16:46:48.984Z,19222.47
2022-10-16T16:49:16.932Z,19257.00
2022-10-16T16:51:46.228Z,19214.34
2022-10-16T16:54:14.879Z,19200.13
2022-10-16T16:56:45.177Z,19220.44
2022-10-16T16:59:16.633Z,19177.75
2022-10-16T17:01:44.745Z,19171.66
2022-10-16T17:04:13.023Z,19189.97
2022-10-16T17:06:41.325Z,19208.25
2022-10-16T17:09:13.942Z,19171.66
2022-10-16T17:11:43.895Z,19163.53
2022-10-16T17:14:12.144Z,19133.06
2022-10-16T17:16:44.602Z,19135.09
2022-10-16T17:19:15.844Z,19086.31
2022-10-16T17:21:45.810Z,19133.06
2022-10-16T17:24:15.469Z,19120.88
2022-10-16T17:26:48.859Z,19131.03
2022-10-16T17:29:19.154Z,19153.38
2022-10-16T17:31:49.718Z,19151.34
2022-10-16T17:34:17.871Z,19177.75
2022-10-16T17:36:47.157Z,19110.72
2022-10-16T17:39:19.954Z,19147.28
2022-10-16T17:41:49.224Z,19151.34
2022-10-16T17:44:20.832Z,19151.34
2022-10-16T17:46:50.783Z,19112.75
2022-10-16T17:49:19.600Z,19131.03
2022-10-16T17:51:50.522Z,19078.19
2022-10-16T17:54:20.518Z,19061.94
2022-10-16T17:56:48.732Z,19000.97
2022-10-16T17:59:16.969Z,19003.00
2022-10-16T18:01:46.607Z,19013.16
2022-10-16T18:04:18.469Z,18950.19
2022-10-16T18:06:47.890Z,19017.25
2022-10-16T18:09:20.718Z,18978.63
2022-10-16T18:11:52.574Z,18952.22
2022-10-16T18:14:20.573Z,18982.69
2022-10-16T18:19:18.392Z,18954.25
2022-10-16T18:21:47.250Z,18927.84
2022-10-16T18:24:15.245Z,18925.81
2022-10-16T18:26:44.584Z,18903.44
2022-10-16T18:29:14.303Z,18895.31
2022-10-16T18:32:35.730Z,18919.69
2022-10-16T18:35:03.842Z,18879.06
2022-10-16T18:37:31.943Z,18909.53
2022-10-16T18:39:59.931Z,18885.16
2022-10-16T18:42:29.364Z,18909.53
2022-10-16T18:44:57.444Z,18858.75
2022-10-16T18:47:25.778Z,18870.94
2022-10-16T18:49:54.252Z,18909.53
2022-10-16T18:52:23.894Z,18858.75
2022-10-16T18:54:56.055Z,18883.13
2022-10-16T18:57:24.132Z,18879.06
2022-10-16T18:59:53.510Z,18883.13
2022-10-16T19:02:21.623Z,18877.03
2022-10-16T19:04:49.735Z,18852.66
2022-10-16T19:07:17.796Z,18870.94
2022-10-16T19:09:45.802Z,18820.16
2022-10-16T19:12:13.791Z,18870.94
2022-10-16T19:14:41.931Z,18832.34
2022-10-16T19:17:11.751Z,18858.75
2022-10-16T19:19:39.987Z,18848.59
2022-10-16T19:22:27.957Z,18832.34
2022-10-16T19:24:56.311Z,18870.94
2022-10-16T19:27:24.625Z,18809.97
2022-10-16T19:29:52.621Z,18814.03
2022-10-16T19:32:21.955Z,18838.44
2022-10-16T19:34:51.555Z,18809.97
2022-10-16T19:37:25.659Z,18779.50
2022-10-16T19:39:53.669Z,18803.88
2022-10-16T19:42:21.722Z,18771.38
2022-10-16T19:44:51.076Z,18826.25
2022-10-16T19:47:20.930Z,18775.44
2022-10-16T19:49:53.273Z,18795.75
2022-10-16T19:52:22.260Z,18791.69
2022-10-16T19:54:50.328Z,18818.09
2022-10-16T19:57:18.330Z,18789.66
2022-10-16T19:59:46.431Z,18769.34
2022-10-16T20:02:14.442Z,18777.47
2022-10-16T20:04:42.386Z,18744.97
2022-10-16T20:07:11.769Z,18753.09
2022-10-16T20:09:39.880Z,18765.28
2022-10-16T20:12:07.931Z,18744.97
2022-10-16T20:14:36.019Z,18720.59
2022-10-16T20:17:04.058Z,18714.50
2022-10-16T20:19:32.426Z,18736.84
2022-10-16T20:22:00.459Z,18694.16
2022-10-16T20:24:29.816Z,18751.06
2022-10-16T20:26:58.855Z,18722.63
2022-10-16T20:29:27.079Z,18675.88
2022-10-16T20:31:55.253Z,18720.59
2022-10-16T20:34:23.307Z,18714.50
2022-10-16T20:36:51.313Z,18696.19
2022-10-16T20:39:19.300Z,18688.06
2022-10-16T20:41:48.619Z,18671.81
2022-10-16T20:44:16.624Z,18702.28
2022-10-16T20:46:44.582Z,18681.97
2022-10-16T20:49:28.438Z,18688.06
2022-10-16T20:52:00.528Z,18686.03
2022-10-16T20:54:28.497Z,18671.81
2022-10-16T20:56:57.979Z,18655.56
2022-10-16T20:59:25.948Z,18637.28
2022-10-16T21:01:54.132Z,18635.25
2022-10-16T21:04:22.254Z,18631.19
2022-10-16T21:06:50.295Z,18633.22
2022-10-16T21:09:18.306Z,18673.84
2022-10-16T21:11:46.339Z,18616.97
2022-10-16T21:14:15.980Z,18665.72
2022-10-16T21:16:44.158Z,18588.53
2022-10-16T21:19:12.212Z,18629.16
2022-10-16T21:21:40.284Z,18623.06
2022-10-16T21:24:12.179Z,18610.88
2022-10-16T21:26:43.266Z,18610.88
2022-10-16T21:29:11.644Z,18627.13
2022-10-16T21:31:42.473Z,18625.09
2022-10-16T21:34:10.962Z,18639.31
2022-10-16T21:36:42.724Z,18610.88
2022-10-16T21:39:14.057Z,18588.53
2022-10-16T21:41:47.603Z,18623.06
2022-10-16T21:44:16.708Z,18590.56
2022-10-16T21:46:47.167Z,18621.03
2022-10-16T21:49:19.210Z,18637.28
2022-10-16T21:51:50.410Z,18631.19
2022-10-16T21:54:22.201Z,18637.28
2022-10-16T21:56:50.390Z,18610.88
2022-10-16T21:59:18.667Z,18659.63
2022-10-16T22:01:48.519Z,18643.38
2022-10-16T22:04:18.185Z,18651.50
2022-10-16T22:06:46.226Z,18619.00
2022-10-16T22:09:15.940Z,18594.63
2022-10-16T22:11:46.027Z,18602.75
2022-10-16T22:14:17.131Z,18641.34
2022-10-16T22:16:47.442Z,18623.06
2022-10-16T22:19:19.197Z,18631.19
2022-10-16T22:21:48.769Z,18602.75
2022-10-16T22:24:17.554Z,18594.63
2022-10-16T22:26:46.259Z,18663.69
2022-10-16T22:29:16.077Z,18604.78
2022-10-16T22:31:45.140Z,18635.25
2022-10-16T22:34:15.758Z,18645.41
2022-10-16T22:36:43.875Z,18602.75
2022-10-16T22:39:12.221Z,18631.19
2022-10-16T22:41:40.251Z,18627.13
2022-10-16T22:44:12.553Z,18600.72
2022-10-16T22:46:40.979Z,18570.22
2022-10-16T22:49:09.174Z,18600.72
2022-10-16T22:51:38.689Z,18562.09
2022-10-16T22:54:06.849Z,18564.13
2022-10-16T22:56:34.912Z,18531.63
2022-10-16T22:59:02.925Z,18568.19
2022-10-16T23:01:36.718Z,18501.16
2022-10-16T23:04:05.241Z,18484.91
2022-10-16T23:06:33.917Z,18460.53
2022-10-16T23:09:04.326Z,18444.28
2022-10-16T23:11:32.802Z,18444.28
2022-10-16T23:14:00.873Z,18425.97
2022-10-16T23:16:30.147Z,18425.97
2022-10-16T23:18:59.192Z,18411.75
2022-10-16T23:21:27.822Z,18436.16
2022-10-16T23:23:56.448Z,18403.63
2022-10-16T23:26:27.635Z,18403.63
2022-10-16T23:28:58.167Z,18421.91
2022-10-16T23:31:27.349Z,18415.81
2022-10-16T23:33:56.777Z,18383.31
2022-10-16T23:36:25.751Z,18387.38
2022-10-16T23:38:54.803Z,18377.22
2022-10-16T23:41:23.250Z,18358.94
2022-10-16T23:43:52.741Z,18356.91
2022-10-16T23:46:21.268Z,18377.22
2022-10-16T23:48:49.316Z,18330.50
2022-10-16T23:51:17.723Z,18346.75
2022-10-16T23:53:46.069Z,18336.59
2022-10-16T23:56:15.544Z,18338.63
2022-10-16T23:58:43.904Z,18302.06
